Finest — WCW8374 — position and weather

sailwx.info

Track history (hours):
 
Tides and Currents Weather Stations Pressure Air Temp Water Temp Dewpoint Dewpoint Depression Visibility Wind Speed Wind Dir Waves Ship Positions

Finest

Owner: NEW YORK FAST FERRY SERVICES INC, MAMARONECK, NY. More information available from US FCC via Universal Licensing System and Coast Guard Vessel Documentation Center.

Last reported at 2015-Sep-04 22:33 UTC. Time now 2015-Sep-05 03:44 UTC.
Position N 40°34' W 074°03'.

Length 38 m.

Type: High speed craft. MMSI: 366990590.

Date/timePositionNaut miles runAvg speedWind from/ knotsBaromVisibWave heightAir tempDewpointWater temp
2015-Sep-04 22:33N 40°34' W 074°03'3 2.9
2015-Sep-04 21:31N 40°32' W 074°04'1111.3
2015-Sep-04 20:33N 40°42' W 074°00'2 2.1
2015-Sep-04 19:34N 40°40' W 074°02'2 1.0
2015-Sep-04 17:32N 40°39' W 074°03'8 8.0
2015-Sep-04 16:33N 40°46' W 074°01'0 0.0
2015-Sep-04 15:33N 40°46' W 074°01'0 0.0
2015-Sep-04 14:33N 40°46' W 074°01'0 0.0
2015-Sep-04 13:33N 40°46' W 074°01'6 6.1
2015-Sep-04 12:34N 40°40' W 074°02'4 3.6
2015-Sep-04 11:33N 40°37' W 074°03'11 7.7
2015-Sep-04 10:09N 40°26' W 074°05'0 0.0
2015-Sep-04 09:33N 40°26' W 074°05'9 0.8
2015-Sep-03 22:33N 40°35' W 074°02'4 3.5
2015-Sep-03 21:33N 40°32' W 074°04'1010.5
2015-Sep-03 20:33N 40°42' W 074°00'5 4.5
2015-Sep-03 19:33N 40°46' W 074°01'0 0.0
2015-Sep-03 18:33N 40°46' W 074°01'0 0.0
2015-Sep-03 17:33N 40°46' W 074°01'0 0.0
2015-Sep-03 16:33N 40°46' W 074°01'0 0.0
2015-Sep-03 15:33N 40°46' W 074°01'0 0.3
2015-Sep-03 14:34N 40°46' W 074°01'2020.2
2015-Sep-03 13:33N 40°26' W 074°05'1313.5
2015-Sep-03 12:33N 40°39' W 074°02'3 3.2
2015-Sep-03 11:34N 40°36' W 074°03'1010.1
2015-Sep-03 10:32N 40°26' W 074°05'0 0.0
2015-Sep-03 09:33N 40°26' W 074°05'0 0.0
2015-Sep-02 23:03N 40°26' W 074°05'1020.9
2015-Sep-02 22:34N 40°36' W 074°03'5 5.1
2015-Sep-02 21:30N 40°31' W 074°04'1111.4
2015-Sep-02 20:34N 40°41' W 074°01'5 4.8
2015-Sep-02 19:34N 40°46' W 074°01'0 0.0
2015-Sep-02 18:33N 40°46' W 074°01'0 0.0
2015-Sep-02 17:34N 40°46' W 074°01'0 0.0
2015-Sep-02 16:33N 40°46' W 074°01'0 0.0
2015-Sep-02 15:34N 40°46' W 074°01'0 0.0
2015-Sep-02 14:34N 40°46' W 074°01'0 0.0
2015-Sep-02 13:34N 40°46' W 074°01'7 6.6
2015-Sep-02 12:34N 40°40' W 074°03'4 3.7
2015-Sep-02 11:33N 40°36' W 074°03'1010.3
2015-Sep-02 10:33N 40°26' W 074°05'0 0.0
2015-Sep-01 23:19N 40°26' W 074°05'1114.0
2015-Sep-01 22:34N 40°36' W 074°03'5 4.9
2015-Sep-01 21:33N 40°32' W 074°04'1010.2
2015-Sep-01 20:34N 40°41' W 074°01'5 4.8
2015-Sep-01 19:33N 40°46' W 074°01'0 0.0
2015-Sep-01 18:33N 40°46' W 074°01'0 0.0
2015-Sep-01 17:34N 40°46' W 074°01'0 0.0
2015-Sep-01 16:33N 40°46' W 074°01'0 0.0
2015-Sep-01 15:34N 40°46' W 074°01'0 0.0
2015-Sep-01 14:34N 40°46' W 074°01'0 0.0
2015-Sep-01 13:34N 40°46' W 074°01'8 8.4
2015-Sep-01 12:34N 40°38' W 074°03'0 0.4
2015-Sep-01 11:34N 40°38' W 074°03'1 0.1
2015-Aug-31 22:33N 40°37' W 074°03'5 4.7
2015-Aug-31 21:32N 40°32' W 074°04'1010.1
2015-Aug-31 20:34N 40°42' W 074°01'4 4.2
2015-Aug-31 19:34N 40°46' W 074°00'1 0.7
2015-Aug-31 18:34N 40°46' W 074°01'0 0.0
2015-Aug-31 17:34N 40°46' W 074°01'0 0.0
2015-Aug-31 16:34N 40°46' W 074°01'0 0.0
2015-Aug-31 15:34N 40°46' W 074°01'1 0.7
2015-Aug-31 14:34N 40°46' W 074°00'1410.1
2015-Aug-31 13:09N 40°31' W 074°03'1424.5
2015-Aug-31 12:34N 40°46' W 074°00'1510.2
2015-Aug-31 11:05N 40°31' W 074°04'1222.8
2015-Aug-31 10:33N 40°43' W 074°01'  
2015-Aug-28 22:33N 40°35' W 074°04'7 3.6
2015-Aug-28 20:34N 40°42' W 074°01'4 3.9
2015-Aug-28 19:33N 40°46' W 074°00'9 9.3
2015-Aug-28 18:33N 40°37' W 074°03'0 0.4
2015-Aug-28 17:33N 40°37' W 074°03'9 9.5
2015-Aug-28 16:34N 40°46' W 074°01'0 0.1
2015-Aug-28 15:33N 40°46' W 074°01'5 4.7
2015-Aug-28 14:34N 40°42' W 074°00'4 2.0
2015-Aug-28 12:34N 40°46' W 074°00'2018.8
2015-Aug-28 11:30N 40°26' W 074°05'1718.0
2015-Aug-28 10:34N 40°43' W 074°01'1716.7
2015-Aug-28 09:32N 40°26' W 074°05'10 0.9
2015-Aug-27 22:34N 40°35' W 074°03'4 3.8
2015-Aug-27 21:33N 40°32' W 074°03'10 9.8
2015-Aug-27 20:34N 40°41' W 074°01'5 5.0
2015-Aug-27 19:33N 40°46' W 074°01'0 0.0
2015-Aug-27 18:33N 40°46' W 074°01'0 0.0
2015-Aug-27 17:33N 40°46' W 074°01'0 0.0
2015-Aug-27 16:33N 40°46' W 074°01'0 0.0
2015-Aug-27 15:33N 40°46' W 074°01'1 0.7
2015-Aug-27 14:33N 40°46' W 074°00'1510.3
2015-Aug-27 13:08N 40°31' W 074°03'1423.4
2015-Aug-27 12:34N 40°45' W 074°01'1915.5
2015-Aug-27 11:20N 40°26' W 074°05'1722.1
2015-Aug-27 10:34N 40°43' W 074°01'7 0.6
2015-Aug-26 22:34N 40°36' W 074°03'6 2.8
2015-Aug-26 20:34N 40°42' W 074°00'4 4.1
2015-Aug-26 19:33N 40°46' W 074°00'1 0.7
2015-Aug-26 18:32N 40°46' W 074°01'0 0.0
2015-Aug-26 17:33N 40°46' W 074°01'0 0.0
2015-Aug-26 16:34N 40°46' W 074°01'0 0.0
2015-Aug-26 15:34N 40°46' W 074°01'4 3.5
2015-Aug-26 14:34N 40°43' W 074°02'1716.6
2015-Aug-26 13:32N 40°26' W 074°05'1717.4
2015-Aug-26 12:34N 40°43' W 074°02'0 0.2
2015-Aug-26 10:34N 40°43' W 074°01'7 0.6
2015-Aug-25 22:33N 40°36' W 074°03'  
Track history (hours):
 
Tides and Currents Weather Stations Pressure Air Temp Water Temp Dewpoint Dewpoint Depression Visibility Wind Speed Wind Dir Waves Ship Positions

Finest

Owner: NEW YORK FAST FERRY SERVICES INC, MAMARONECK, NY. More information available from US FCC via Universal Licensing System and Coast Guard Vessel Documentation Center.

Last reported at 2015-Sep-04 22:33 UTC. Time now 2015-Sep-05 03:44 UTC.
Position N 40°34' W 074°03'.

Length 38 m.

Type: High speed craft. MMSI: 366990590.

Date/timePositionNaut miles runAvg speedWind from/ knotsBaromVisibWave heightAir tempDewpointWater temp
2015-Sep-04 22:33N 40°34' W 074°03'3 2.9
2015-Sep-04 21:31N 40°32' W 074°04'1111.3
2015-Sep-04 20:33N 40°42' W 074°00'2 2.1
2015-Sep-04 19:34N 40°40' W 074°02'2 1.0
2015-Sep-04 17:32N 40°39' W 074°03'8 8.0
2015-Sep-04 16:33N 40°46' W 074°01'0 0.0
2015-Sep-04 15:33N 40°46' W 074°01'0 0.0
2015-Sep-04 14:33N 40°46' W 074°01'0 0.0
2015-Sep-04 13:33N 40°46' W 074°01'6 6.1
2015-Sep-04 12:34N 40°40' W 074°02'4 3.6
2015-Sep-04 11:33N 40°37' W 074°03'11 7.7
2015-Sep-04 10:09N 40°26' W 074°05'0 0.0
2015-Sep-04 09:33N 40°26' W 074°05'9 0.8
2015-Sep-03 22:33N 40°35' W 074°02'4 3.5
2015-Sep-03 21:33N 40°32' W 074°04'1010.5
2015-Sep-03 20:33N 40°42' W 074°00'5 4.5
2015-Sep-03 19:33N 40°46' W 074°01'0 0.0
2015-Sep-03 18:33N 40°46' W 074°01'0 0.0
2015-Sep-03 17:33N 40°46' W 074°01'0 0.0
2015-Sep-03 16:33N 40°46' W 074°01'0 0.0
2015-Sep-03 15:33N 40°46' W 074°01'0 0.3
2015-Sep-03 14:34N 40°46' W 074°01'2020.2
2015-Sep-03 13:33N 40°26' W 074°05'1313.5
2015-Sep-03 12:33N 40°39' W 074°02'3 3.2
2015-Sep-03 11:34N 40°36' W 074°03'1010.1
2015-Sep-03 10:32N 40°26' W 074°05'0 0.0
2015-Sep-03 09:33N 40°26' W 074°05'0 0.0
2015-Sep-02 23:03N 40°26' W 074°05'1020.9
2015-Sep-02 22:34N 40°36' W 074°03'5 5.1
2015-Sep-02 21:30N 40°31' W 074°04'1111.4
2015-Sep-02 20:34N 40°41' W 074°01'5 4.8
2015-Sep-02 19:34N 40°46' W 074°01'0 0.0
2015-Sep-02 18:33N 40°46' W 074°01'0 0.0
2015-Sep-02 17:34N 40°46' W 074°01'0 0.0
2015-Sep-02 16:33N 40°46' W 074°01'0 0.0
2015-Sep-02 15:34N 40°46' W 074°01'0 0.0
2015-Sep-02 14:34N 40°46' W 074°01'0 0.0
2015-Sep-02 13:34N 40°46' W 074°01'7 6.6
2015-Sep-02 12:34N 40°40' W 074°03'4 3.7
2015-Sep-02 11:33N 40°36' W 074°03'1010.3
2015-Sep-02 10:33N 40°26' W 074°05'0 0.0
2015-Sep-01 23:19N 40°26' W 074°05'1114.0
2015-Sep-01 22:34N 40°36' W 074°03'5 4.9
2015-Sep-01 21:33N 40°32' W 074°04'1010.2
2015-Sep-01 20:34N 40°41' W 074°01'5 4.8
2015-Sep-01 19:33N 40°46' W 074°01'0 0.0
2015-Sep-01 18:33N 40°46' W 074°01'0 0.0
2015-Sep-01 17:34N 40°46' W 074°01'0 0.0
2015-Sep-01 16:33N 40°46' W 074°01'0 0.0
2015-Sep-01 15:34N 40°46' W 074°01'0 0.0
2015-Sep-01 14:34N 40°46' W 074°01'0 0.0
2015-Sep-01 13:34N 40°46' W 074°01'8 8.4
2015-Sep-01 12:34N 40°38' W 074°03'0 0.4
2015-Sep-01 11:34N 40°38' W 074°03'1 0.1
2015-Aug-31 22:33N 40°37' W 074°03'5 4.7
2015-Aug-31 21:32N 40°32' W 074°04'1010.1
2015-Aug-31 20:34N 40°42' W 074°01'4 4.2
2015-Aug-31 19:34N 40°46' W 074°00'1 0.7
2015-Aug-31 18:34N 40°46' W 074°01'0 0.0
2015-Aug-31 17:34N 40°46' W 074°01'0 0.0
2015-Aug-31 16:34N 40°46' W 074°01'0 0.0
2015-Aug-31 15:34N 40°46' W 074°01'1 0.7
2015-Aug-31 14:34N 40°46' W 074°00'1410.1
2015-Aug-31 13:09N 40°31' W 074°03'1424.5
2015-Aug-31 12:34N 40°46' W 074°00'1510.2
2015-Aug-31 11:05N 40°31' W 074°04'1222.8
2015-Aug-31 10:33N 40°43' W 074°01'  
2015-Aug-28 22:33N 40°35' W 074°04'7 3.6
2015-Aug-28 20:34N 40°42' W 074°01'4 3.9
2015-Aug-28 19:33N 40°46' W 074°00'9 9.3
2015-Aug-28 18:33N 40°37' W 074°03'0 0.4
2015-Aug-28 17:33N 40°37' W 074°03'9 9.5
2015-Aug-28 16:34N 40°46' W 074°01'0 0.1
2015-Aug-28 15:33N 40°46' W 074°01'5 4.7
2015-Aug-28 14:34N 40°42' W 074°00'4 2.0
2015-Aug-28 12:34N 40°46' W 074°00'2018.8
2015-Aug-28 11:30N 40°26' W 074°05'1718.0
2015-Aug-28 10:34N 40°43' W 074°01'1716.7
2015-Aug-28 09:32N 40°26' W 074°05'10 0.9
2015-Aug-27 22:34N 40°35' W 074°03'4 3.8
2015-Aug-27 21:33N 40°32' W 074°03'10 9.8
2015-Aug-27 20:34N 40°41' W 074°01'5 5.0
2015-Aug-27 19:33N 40°46' W 074°01'0 0.0
2015-Aug-27 18:33N 40°46' W 074°01'0 0.0
2015-Aug-27 17:33N 40°46' W 074°01'0 0.0
2015-Aug-27 16:33N 40°46' W 074°01'0 0.0
2015-Aug-27 15:33N 40°46' W 074°01'1 0.7
2015-Aug-27 14:33N 40°46' W 074°00'1510.3
2015-Aug-27 13:08N 40°31' W 074°03'1423.4
2015-Aug-27 12:34N 40°45' W 074°01'1915.5
2015-Aug-27 11:20N 40°26' W 074°05'1722.1
2015-Aug-27 10:34N 40°43' W 074°01'7 0.6
2015-Aug-26 22:34N 40°36' W 074°03'6 2.8
2015-Aug-26 20:34N 40°42' W 074°00'4 4.1
2015-Aug-26 19:33N 40°46' W 074°00'1 0.7
2015-Aug-26 18:32N 40°46' W 074°01'0 0.0
2015-Aug-26 17:33N 40°46' W 074°01'0 0.0
2015-Aug-26 16:34N 40°46' W 074°01'0 0.0
2015-Aug-26 15:34N 40°46' W 074°01'4 3.5
2015-Aug-26 14:34N 40°43' W 074°02'1716.6
2015-Aug-26 13:32N 40°26' W 074°05'1717.4
2015-Aug-26 12:34N 40°43' W 074°02'0 0.2
2015-Aug-26 10:34N 40°43' W 074°01'7 0.6
2015-Aug-25 22:33N 40°36' W 074°03'  

Dump ship's entire track history